sensor_id;sensor_type;location;lat;lon;timestamp;P1;durP1;ratioP1;P2;durP2;ratioP2
21519;SDS011;10921;53.614;9.882;2022-07-04T00:02:16;10.00;;;9.00;;
21519;SDS011;10921;53.614;9.882;2022-07-04T00:04:42;11.35;;;8.90;;
21519;SDS011;10921;53.614;9.882;2022-07-04T00:07:09;11.32;;;5.35;;
21519;SDS011;10921;53.614;9.882;2022-07-04T00:09:36;7.90;;;5.10;;
21519;SDS011;10921;53.614;9.882;2022-07-04T00:12:02;8.55;;;5.45;;
21519;SDS011;10921;53.614;9.882;2022-07-04T00:14:29;12.27;;;5.60;;
21519;SDS011;10921;53.614;9.882;2022-07-04T00:16:56;9.40;;;5.47;;
21519;SDS011;10921;53.614;9.882;2022-07-04T00:19:22;10.60;;;6.13;;
21519;SDS011;10921;53.614;9.882;2022-07-04T00:21:49;9.32;;;5.82;;
21519;SDS011;10921;53.614;9.882;2022-07-04T00:24:16;9.82;;;6.78;;
21519;SDS011;10921;53.614;9.882;2022-07-04T00:26:43;12.75;;;6.93;;
21519;SDS011;10921;53.614;9.882;2022-07-04T00:29:09;12.98;;;6.50;;
21519;SDS011;10921;53.614;9.882;2022-07-04T00:31:36;9.02;;;7.55;;
21519;SDS011;10921;53.614;9.882;2022-07-04T00:34:03;13.27;;;6.97;;
21519;SDS011;10921;53.614;9.882;2022-07-04T00:36:29;18.92;;;8.35;;
21519;SDS011;10921;53.614;9.882;2022-07-04T00:38:56;9.77;;;7.63;;
21519;SDS011;10921;53.614;9.882;2022-07-04T00:41:22;12.13;;;7.50;;
21519;SDS011;10921;53.614;9.882;2022-07-04T00:44:05;17.88;;;8.05;;
21519;SDS011;10921;53.614;9.882;2022-07-04T00:46:38;15.10;;;8.23;;
21519;SDS011;10921;53.614;9.882;2022-07-04T00:49:06;13.88;;;7.45;;
21519;SDS011;10921;53.614;9.882;2022-07-04T00:51:33;13.63;;;9.50;;
21519;SDS011;10921;53.614;9.882;2022-07-04T00:54:00;20.60;;;9.82;;
21519;SDS011;10921;53.614;9.882;2022-07-04T00:56:26;14.75;;;8.60;;
21519;SDS011;10921;53.614;9.882;2022-07-04T00:58:53;15.95;;;9.25;;
21519;SDS011;10921;53.614;9.882;2022-07-04T01:01:20;25.15;;;11.57;;
21519;SDS011;10921;53.614;9.882;2022-07-04T01:03:47;17.52;;;10.93;;
21519;SDS011;10921;53.614;9.882;2022-07-04T01:06:15;15.20;;;10.82;;
21519;SDS011;10921;53.614;9.882;2022-07-04T01:08:44;14.55;;;11.05;;
21519;SDS011;10921;53.614;9.882;2022-07-04T01:11:12;18.80;;;11.75;;
21519;SDS011;10921;53.614;9.882;2022-07-04T01:13:39;16.40;;;10.50;;
21519;SDS011;10921;53.614;9.882;2022-07-04T01:16:09;21.08;;;12.43;;
21519;SDS011;10921;53.614;9.882;2022-07-04T01:18:37;25.95;;;12.52;;
21519;SDS011;10921;53.614;9.882;2022-07-04T01:21:04;17.17;;;12.43;;
21519;SDS011;10921;53.614;9.882;2022-07-04T01:23:31;21.15;;;12.13;;
21519;SDS011;10921;53.614;9.882;2022-07-04T01:25:58;20.58;;;13.20;;
21519;SDS011;10921;53.614;9.882;2022-07-04T01:28:25;24.27;;;13.02;;
21519;SDS011;10921;53.614;9.882;2022-07-04T01:30:52;26.85;;;15.57;;
21519;SDS011;10921;53.614;9.882;2022-07-04T01:33:18;24.85;;;17.20;;
21519;SDS011;10921;53.614;9.882;2022-07-04T01:35:45;20.25;;;14.70;;
21519;SDS011;10921;53.614;9.882;2022-07-04T01:38:13;21.15;;;14.30;;
21519;SDS011;10921;53.614;9.882;2022-07-04T01:40:40;26.35;;;15.10;;
21519;SDS011;10921;53.614;9.882;2022-07-04T01:43:06;25.08;;;16.85;;
21519;SDS011;10921;53.614;9.882;2022-07-04T01:45:33;19.25;;;13.70;;
21519;SDS011;10921;53.614;9.882;2022-07-04T01:48:04;23.35;;;13.98;;
21519;SDS011;10921;53.614;9.882;2022-07-04T01:50:32;23.13;;;15.52;;
21519;SDS011;10921;53.614;9.882;2022-07-04T01:52:58;25.30;;;15.32;;
21519;SDS011;10921;53.614;9.882;2022-07-04T01:55:25;29.92;;;16.30;;
21519;SDS011;10921;53.614;9.882;2022-07-04T01:57:51;33.88;;;20.20;;
21519;SDS011;10921;53.614;9.882;2022-07-04T02:00:18;28.58;;;20.42;;
21519;SDS011;10921;53.614;9.882;2022-07-04T02:03:03;30.73;;;19.58;;
21519;SDS011;10921;53.614;9.882;2022-07-04T02:05:30;27.25;;;18.80;;
21519;SDS011;10921;53.614;9.882;2022-07-04T02:07:56;29.80;;;19.95;;
21519;SDS011;10921;53.614;9.882;2022-07-04T02:10:23;33.97;;;22.38;;
21519;SDS011;10921;53.614;9.882;2022-07-04T02:12:50;28.48;;;21.00;;
21519;SDS011;10921;53.614;9.882;2022-07-04T02:15:32;33.78;;;20.27;;
21519;SDS011;10921;53.614;9.882;2022-07-04T02:18:03;30.90;;;20.55;;
21519;SDS011;10921;53.614;9.882;2022-07-04T02:20:32;22.75;;;19.73;;
21519;SDS011;10921;53.614;9.882;2022-07-04T02:22:59;26.92;;;20.38;;
21519;SDS011;10921;53.614;9.882;2022-07-04T02:25:25;28.17;;;19.33;;
21519;SDS011;10921;53.614;9.882;2022-07-04T02:27:52;29.13;;;19.20;;
21519;SDS011;10921;53.614;9.882;2022-07-04T02:30:19;27.63;;;18.98;;
21519;SDS011;10921;53.614;9.882;2022-07-04T02:32:45;25.70;;;17.80;;
21519;SDS011;10921;53.614;9.882;2022-07-04T02:35:12;24.63;;;17.33;;
21519;SDS011;10921;53.614;9.882;2022-07-04T02:37:39;22.40;;;17.85;;
21519;SDS011;10921;53.614;9.882;2022-07-04T02:40:06;25.02;;;17.63;;
21519;SDS011;10921;53.614;9.882;2022-07-04T02:42:33;24.38;;;18.35;;
21519;SDS011;10921;53.614;9.882;2022-07-04T02:45:00;25.13;;;18.08;;
21519;SDS011;10921;53.614;9.882;2022-07-04T02:47:27;24.80;;;17.17;;
21519;SDS011;10921;53.614;9.882;2022-07-04T02:49:54;25.48;;;17.17;;
21519;SDS011;10921;53.614;9.882;2022-07-04T02:52:21;24.27;;;17.77;;
21519;SDS011;10921;53.614;9.882;2022-07-04T02:54:48;24.85;;;13.95;;
21519;SDS011;10921;53.614;9.882;2022-07-04T02:57:15;27.83;;;15.43;;
21519;SDS011;10921;53.614;9.882;2022-07-04T02:59:41;23.13;;;14.88;;
21519;SDS011;10921;53.614;9.882;2022-07-04T03:02:08;21.02;;;15.15;;
21519;SDS011;10921;53.614;9.882;2022-07-04T03:04:35;18.02;;;13.82;;
21519;SDS011;10921;53.614;9.882;2022-07-04T03:07:01;19.40;;;15.45;;
21519;SDS011;10921;53.614;9.882;2022-07-04T03:09:28;19.65;;;14.32;;
21519;SDS011;10921;53.614;9.882;2022-07-04T03:11:54;24.05;;;15.77;;
21519;SDS011;10921;53.614;9.882;2022-07-04T03:14:21;23.25;;;16.25;;
21519;SDS011;10921;53.614;9.882;2022-07-04T03:16:47;25.05;;;16.23;;
21519;SDS011;10921;53.614;9.882;2022-07-04T03:19:14;26.52;;;18.52;;
21519;SDS011;10921;53.614;9.882;2022-07-04T03:21:41;29.08;;;18.30;;
21519;SDS011;10921;53.614;9.882;2022-07-04T03:24:07;29.75;;;19.92;;
21519;SDS011;10921;53.614;9.882;2022-07-04T03:26:35;27.65;;;18.92;;
21519;SDS011;10921;53.614;9.882;2022-07-04T03:29:01;32.10;;;20.27;;
21519;SDS011;10921;53.614;9.882;2022-07-04T03:31:28;31.40;;;21.25;;
21519;SDS011;10921;53.614;9.882;2022-07-04T03:33:55;30.27;;;20.90;;
21519;SDS011;10921;53.614;9.882;2022-07-04T03:36:22;28.83;;;20.33;;
21519;SDS011;10921;53.614;9.882;2022-07-04T03:38:48;27.48;;;20.70;;
21519;SDS011;10921;53.614;9.882;2022-07-04T03:41:15;31.90;;;20.55;;
21519;SDS011;10921;53.614;9.882;2022-07-04T03:43:41;30.75;;;21.85;;
21519;SDS011;10921;53.614;9.882;2022-07-04T03:46:08;31.90;;;21.88;;
21519;SDS011;10921;53.614;9.882;2022-07-04T03:48:34;34.78;;;22.98;;
21519;SDS011;10921;53.614;9.882;2022-07-04T03:51:02;35.97;;;22.02;;
21519;SDS011;10921;53.614;9.882;2022-07-04T03:53:28;27.08;;;20.30;;
21519;SDS011;10921;53.614;9.882;2022-07-04T03:55:55;31.02;;;20.48;;
21519;SDS011;10921;53.614;9.882;2022-07-04T03:58:21;31.70;;;21.35;;
21519;SDS011;10921;53.614;9.882;2022-07-04T04:00:48;30.42;;;21.90;;
21519;SDS011;10921;53.614;9.882;2022-07-04T04:03:14;33.58;;;23.02;;
21519;SDS011;10921;53.614;9.882;2022-07-04T04:05:59;29.75;;;20.20;;
21519;SDS011;10921;53.614;9.882;2022-07-04T04:08:25;31.95;;;21.27;;
21519;SDS011;10921;53.614;9.882;2022-07-04T04:10:52;30.65;;;21.92;;
21519;SDS011;10921;53.614;9.882;2022-07-04T04:13:18;34.35;;;23.23;;
21519;SDS011;10921;53.614;9.882;2022-07-04T04:15:45;29.83;;;20.77;;
21519;SDS011;10921;53.614;9.882;2022-07-04T04:18:11;35.50;;;20.85;;
21519;SDS011;10921;53.614;9.882;2022-07-04T04:20:38;31.73;;;20.63;;
21519;SDS011;10921;53.614;9.882;2022-07-04T04:23:04;32.78;;;22.15;;
21519;SDS011;10921;53.614;9.882;2022-07-04T04:25:31;27.45;;;18.90;;
21519;SDS011;10921;53.614;9.882;2022-07-04T04:27:57;25.60;;;19.17;;
21519;SDS011;10921;53.614;9.882;2022-07-04T04:30:24;29.60;;;17.60;;
21519;SDS011;10921;53.614;9.882;2022-07-04T04:32:50;26.70;;;17.35;;
21519;SDS011;10921;53.614;9.882;2022-07-04T04:35:17;24.92;;;17.05;;
21519;SDS011;10921;53.614;9.882;2022-07-04T04:37:43;26.30;;;16.35;;
21519;SDS011;10921;53.614;9.882;2022-07-04T04:40:10;26.17;;;14.57;;
21519;SDS011;10921;53.614;9.882;2022-07-04T04:42:37;23.98;;;15.25;;
21519;SDS011;10921;53.614;9.882;2022-07-04T04:45:04;24.67;;;14.43;;
21519;SDS011;10921;53.614;9.882;2022-07-04T04:47:31;28.13;;;14.32;;
21519;SDS011;10921;53.614;9.882;2022-07-04T04:49:58;24.65;;;13.93;;
21519;SDS011;10921;53.614;9.882;2022-07-04T04:52:24;17.98;;;11.70;;
21519;SDS011;10921;53.614;9.882;2022-07-04T04:54:51;22.00;;;12.00;;
21519;SDS011;10921;53.614;9.882;2022-07-04T04:57:17;17.75;;;10.82;;
21519;SDS011;10921;53.614;9.882;2022-07-04T04:59:44;15.13;;;10.27;;
21519;SDS011;10921;53.614;9.882;2022-07-04T05:02:10;17.48;;;9.32;;
21519;SDS011;10921;53.614;9.882;2022-07-04T05:04:42;15.40;;;9.60;;
21519;SDS011;10921;53.614;9.882;2022-07-04T05:07:09;14.25;;;8.23;;
21519;SDS011;10921;53.614;9.882;2022-07-04T05:09:35;12.98;;;7.95;;
21519;SDS011;10921;53.614;9.882;2022-07-04T05:12:02;14.60;;;7.45;;
21519;SDS011;10921;53.614;9.882;2022-07-04T05:14:29;12.80;;;6.78;;
21519;SDS011;10921;53.614;9.882;2022-07-04T05:16:55;11.23;;;6.72;;
21519;SDS011;10921;53.614;9.882;2022-07-04T05:19:22;12.38;;;7.05;;
21519;SDS011;10921;53.614;9.882;2022-07-04T05:21:48;13.70;;;6.28;;
21519;SDS011;10921;53.614;9.882;2022-07-04T05:24:15;14.35;;;6.45;;
21519;SDS011;10921;53.614;9.882;2022-07-04T05:26:42;11.68;;;5.60;;
21519;SDS011;10921;53.614;9.882;2022-07-04T05:29:09;9.95;;;4.93;;
21519;SDS011;10921;53.614;9.882;2022-07-04T05:31:35;6.35;;;5.10;;
21519;SDS011;10921;53.614;9.882;2022-07-04T05:34:02;12.73;;;5.00;;
21519;SDS011;10921;53.614;9.882;2022-07-04T05:36:29;16.67;;;4.90;;
21519;SDS011;10921;53.614;9.882;2022-07-04T05:38:56;8.05;;;4.07;;
21519;SDS011;10921;53.614;9.882;2022-07-04T05:41:24;5.75;;;3.67;;
21519;SDS011;10921;53.614;9.882;2022-07-04T05:43:51;8.65;;;3.50;;
21519;SDS011;10921;53.614;9.882;2022-07-04T05:46:23;6.93;;;3.13;;
21519;SDS011;10921;53.614;9.882;2022-07-04T05:48:50;10.60;;;3.90;;
21519;SDS011;10921;53.614;9.882;2022-07-04T05:51:17;12.68;;;4.30;;
21519;SDS011;10921;53.614;9.882;2022-07-04T05:53:44;11.52;;;4.38;;
21519;SDS011;10921;53.614;9.882;2022-07-04T05:56:11;12.55;;;4.03;;
21519;SDS011;10921;53.614;9.882;2022-07-04T05:58:37;11.18;;;4.30;;
21519;SDS011;10921;53.614;9.882;2022-07-04T06:01:04;11.30;;;10.10;;
21519;SDS011;10921;53.614;9.882;2022-07-04T06:03:30;11.10;;;10.00;;
21519;SDS011;10921;53.614;9.882;2022-07-04T06:05:57;16.75;;;10.55;;
21519;SDS011;10921;53.614;9.882;2022-07-04T06:08:24;14.98;;;10.52;;
21519;SDS011;10921;53.614;9.882;2022-07-04T06:10:50;10.20;;;4.65;;
21519;SDS011;10921;53.614;9.882;2022-07-04T06:13:17;10.10;;;4.75;;
21519;SDS011;10921;53.614;9.882;2022-07-04T06:15:43;10.73;;;9.85;;
21519;SDS011;10921;53.614;9.882;2022-07-04T06:18:10;14.93;;;10.48;;
21519;SDS011;10921;53.614;9.882;2022-07-04T06:20:36;14.35;;;10.10;;
21519;SDS011;10921;53.614;9.882;2022-07-04T06:23:03;17.33;;;10.23;;
21519;SDS011;10921;53.614;9.882;2022-07-04T06:25:29;12.73;;;10.75;;
21519;SDS011;10921;53.614;9.882;2022-07-04T06:27:56;12.60;;;10.32;;
21519;SDS011;10921;53.614;9.882;2022-07-04T06:30:22;12.57;;;10.68;;
21519;SDS011;10921;53.614;9.882;2022-07-04T06:32:52;11.65;;;10.30;;
21519;SDS011;10921;53.614;9.882;2022-07-04T06:35:22;14.77;;;10.13;;
21519;SDS011;10921;53.614;9.882;2022-07-04T06:38:10;11.85;;;10.63;;
21519;SDS011;10921;53.614;9.882;2022-07-04T06:40:41;18.90;;;10.90;;
21519;SDS011;10921;53.614;9.882;2022-07-04T06:43:08;11.55;;;10.57;;
21519;SDS011;10921;53.614;9.882;2022-07-04T06:45:35;14.82;;;12.15;;
21519;SDS011;10921;53.614;9.882;2022-07-04T06:48:05;12.90;;;9.95;;
21519;SDS011;10921;53.614;9.882;2022-07-04T06:50:33;10.20;;;9.20;;
21519;SDS011;10921;53.614;9.882;2022-07-04T06:53:06;13.02;;;10.07;;
21519;SDS011;10921;53.614;9.882;2022-07-04T06:55:33;15.15;;;9.85;;
21519;SDS011;10921;53.614;9.882;2022-07-04T06:58:00;11.00;;;9.27;;
21519;SDS011;10921;53.614;9.882;2022-07-04T07:00:28;11.90;;;9.57;;
21519;SDS011;10921;53.614;9.882;2022-07-04T07:02:58;10.10;;;9.10;;
21519;SDS011;10921;53.614;9.882;2022-07-04T07:05:25;13.05;;;9.85;;
21519;SDS011;10921;53.614;9.882;2022-07-04T07:08:12;11.68;;;9.52;;
21519;SDS011;10921;53.614;9.882;2022-07-04T07:10:39;10.57;;;9.02;;
21519;SDS011;10921;53.614;9.882;2022-07-04T07:13:05;14.90;;;9.10;;
21519;SDS011;10921;53.614;9.882;2022-07-04T07:15:32;11.38;;;9.27;;
21519;SDS011;10921;53.614;9.882;2022-07-04T07:18:02;9.77;;;8.80;;
21519;SDS011;10921;53.614;9.882;2022-07-04T07:20:29;6.10;;;3.15;;
21519;SDS011;10921;53.614;9.882;2022-07-04T07:22:56;8.73;;;5.20;;
21519;SDS011;10921;53.614;9.882;2022-07-04T07:25:22;6.68;;;5.50;;
21519;SDS011;10921;53.614;9.882;2022-07-04T07:27:49;3.90;;;3.00;;
21519;SDS011;10921;53.614;9.882;2022-07-04T07:30:15;5.60;;;2.83;;
21519;SDS011;10921;53.614;9.882;2022-07-04T07:32:42;9.23;;;3.70;;
21519;SDS011;10921;53.614;9.882;2022-07-04T07:35:08;5.90;;;2.80;;
21519;SDS011;10921;53.614;9.882;2022-07-04T07:37:35;6.93;;;3.35;;
21519;SDS011;10921;53.614;9.882;2022-07-04T07:40:01;5.28;;;3.03;;
21519;SDS011;10921;53.614;9.882;2022-07-04T07:42:28;4.45;;;2.50;;
21519;SDS011;10921;53.614;9.882;2022-07-04T07:44:55;7.68;;;2.78;;
21519;SDS011;10921;53.614;9.882;2022-07-04T07:47:22;6.28;;;3.10;;
21519;SDS011;10921;53.614;9.882;2022-07-04T07:49:48;8.50;;;7.28;;
21519;SDS011;10921;53.614;9.882;2022-07-04T07:52:15;9.68;;;2.97;;
21519;SDS011;10921;53.614;9.882;2022-07-04T07:54:42;9.45;;;2.92;;
21519;SDS011;10921;53.614;9.882;2022-07-04T07:57:25;7.95;;;3.10;;
21519;SDS011;10921;53.614;9.882;2022-07-04T07:59:51;3.78;;;2.47;;
21519;SDS011;10921;53.614;9.882;2022-07-04T08:02:18;5.70;;;2.85;;
21519;SDS011;10921;53.614;9.882;2022-07-04T08:04:44;8.13;;;2.60;;
21519;SDS011;10921;53.614;9.882;2022-07-04T08:07:11;6.90;;;3.17;;
21519;SDS011;10921;53.614;9.882;2022-07-04T08:09:48;9.20;;;8.50;;
21519;SDS011;10921;53.614;9.882;2022-07-04T08:12:14;9.18;;;8.38;;
21519;SDS011;10921;53.614;9.882;2022-07-04T08:14:41;9.27;;;8.35;;
21519;SDS011;10921;53.614;9.882;2022-07-04T08:17:07;9.48;;;8.48;;
21519;SDS011;10921;53.614;9.882;2022-07-04T08:19:34;9.90;;;8.70;;
21519;SDS011;10921;53.614;9.882;2022-07-04T08:22:00;8.80;;;7.95;;
21519;SDS011;10921;53.614;9.882;2022-07-04T08:24:44;9.73;;;8.73;;
21519;SDS011;10921;53.614;9.882;2022-07-04T08:27:11;9.35;;;8.43;;
21519;SDS011;10921;53.614;9.882;2022-07-04T08:29:38;8.75;;;7.82;;
21519;SDS011;10921;53.614;9.882;2022-07-04T08:32:05;8.32;;;7.72;;
21519;SDS011;10921;53.614;9.882;2022-07-04T08:34:34;8.90;;;8.10;;
21519;SDS011;10921;53.614;9.882;2022-07-04T08:37:01;9.15;;;8.23;;
21519;SDS011;10921;53.614;9.882;2022-07-04T08:39:28;9.73;;;8.90;;
21519;SDS011;10921;53.614;9.882;2022-07-04T08:41:55;8.35;;;7.75;;
21519;SDS011;10921;53.614;9.882;2022-07-04T08:44:27;9.90;;;9.13;;
21519;SDS011;10921;53.614;9.882;2022-07-04T08:46:54;8.88;;;8.13;;
21519;SDS011;10921;53.614;9.882;2022-07-04T08:49:21;10.23;;;9.20;;
21519;SDS011;10921;53.614;9.882;2022-07-04T08:51:59;10.27;;;7.80;;
21519;SDS011;10921;53.614;9.882;2022-07-04T08:54:29;9.55;;;7.47;;
21519;SDS011;10921;53.614;9.882;2022-07-04T08:57:16;8.38;;;7.57;;
21519;SDS011;10921;53.614;9.882;2022-07-04T09:00:03;9.63;;;7.80;;
21519;SDS011;10921;53.614;9.882;2022-07-04T09:02:30;8.57;;;7.78;;
21519;SDS011;10921;53.614;9.882;2022-07-04T09:05:00;8.88;;;7.70;;
21519;SDS011;10921;53.614;9.882;2022-07-04T09:07:26;8.07;;;7.35;;
21519;SDS011;10921;53.614;9.882;2022-07-04T09:09:54;8.10;;;7.40;;
21519;SDS011;10921;53.614;9.882;2022-07-04T09:12:23;8.30;;;7.38;;
21519;SDS011;10921;53.614;9.882;2022-07-04T09:14:50;8.30;;;7.63;;
21519;SDS011;10921;53.614;9.882;2022-07-04T09:17:18;8.50;;;7.70;;
21519;SDS011;10921;53.614;9.882;2022-07-04T09:19:44;8.48;;;7.40;;
21519;SDS011;10921;53.614;9.882;2022-07-04T09:22:12;8.20;;;7.00;;
21519;SDS011;10921;53.614;9.882;2022-07-04T09:24:59;7.57;;;7.07;;
21519;SDS011;10921;53.614;9.882;2022-07-04T09:27:37;8.20;;;7.50;;
21519;SDS011;10921;53.614;9.882;2022-07-04T09:30:06;8.30;;;7.60;;
21519;SDS011;10921;53.614;9.882;2022-07-04T09:32:40;8.65;;;7.78;;
21519;SDS011;10921;53.614;9.882;2022-07-04T09:35:17;9.10;;;8.30;;
21519;SDS011;10921;53.614;9.882;2022-07-04T09:37:47;7.80;;;7.15;;
21519;SDS011;10921;53.614;9.882;2022-07-04T09:42:47;7.80;;;7.30;;
21519;SDS011;10921;53.614;9.882;2022-07-04T09:45:14;7.70;;;7.18;;
21519;SDS011;10921;53.614;9.882;2022-07-04T09:47:41;7.70;;;7.20;;
21519;SDS011;10921;53.614;9.882;2022-07-04T09:50:16;7.75;;;7.15;;
21519;SDS011;10921;53.614;9.882;2022-07-04T09:52:48;7.78;;;7.00;;
21519;SDS011;10921;53.614;9.882;2022-07-04T09:57:51;7.95;;;7.25;;
21519;SDS011;10921;53.614;9.882;2022-07-04T10:00:20;7.72;;;7.13;;
21519;SDS011;10921;53.614;9.882;2022-07-04T10:02:50;7.40;;;6.90;;
21519;SDS011;10921;53.614;9.882;2022-07-04T10:05:21;7.97;;;7.30;;
21519;SDS011;10921;53.614;9.882;2022-07-04T10:07:49;7.82;;;7.20;;
21519;SDS011;10921;53.614;9.882;2022-07-04T10:13:11;7.15;;;6.65;;
21519;SDS011;10921;53.614;9.882;2022-07-04T10:15:39;8.00;;;7.20;;
21519;SDS011;10921;53.614;9.882;2022-07-04T10:18:08;7.18;;;6.68;;
21519;SDS011;10921;53.614;9.882;2022-07-04T10:20:35;7.93;;;7.30;;
21519;SDS011;10921;53.614;9.882;2022-07-04T10:23:03;8.00;;;7.30;;
21519;SDS011;10921;53.614;9.882;2022-07-04T10:25:29;7.70;;;7.00;;
21519;SDS011;10921;53.614;9.882;2022-07-04T10:27:56;7.70;;;7.00;;
21519;SDS011;10921;53.614;9.882;2022-07-04T10:30:26;7.03;;;6.53;;
21519;SDS011;10921;53.614;9.882;2022-07-04T10:32:58;7.97;;;7.47;;
21519;SDS011;10921;53.614;9.882;2022-07-04T10:38:17;7.78;;;7.25;;
21519;SDS011;10921;53.614;9.882;2022-07-04T10:40:51;7.82;;;7.10;;
21519;SDS011;10921;53.614;9.882;2022-07-04T10:48:48;7.80;;;7.20;;
21519;SDS011;10921;53.614;9.882;2022-07-04T10:51:15;7.50;;;7.00;;
21519;SDS011;10921;53.614;9.882;2022-07-04T10:53:57;7.72;;;7.13;;
21519;SDS011;10921;53.614;9.882;2022-07-04T10:58:54;8.18;;;7.32;;
21519;SDS011;10921;53.614;9.882;2022-07-04T11:01:23;8.02;;;6.60;;
21519;SDS011;10921;53.614;9.882;2022-07-04T11:03:51;7.30;;;6.70;;
21519;SDS011;10921;53.614;9.882;2022-07-04T11:09:15;7.55;;;6.95;;
21519;SDS011;10921;53.614;9.882;2022-07-04T11:17:11;7.13;;;6.65;;
21519;SDS011;10921;53.614;9.882;2022-07-04T11:19:45;7.80;;;7.20;;
21519;SDS011;10921;53.614;9.882;2022-07-04T11:22:21;7.65;;;6.93;;
21519;SDS011;10921;53.614;9.882;2022-07-04T11:24:49;7.25;;;6.75;;
21519;SDS011;10921;53.614;9.882;2022-07-04T11:27:15;7.72;;;7.03;;
21519;SDS011;10921;53.614;9.882;2022-07-04T11:29:51;7.20;;;6.50;;
21519;SDS011;10921;53.614;9.882;2022-07-04T11:34:56;8.15;;;7.35;;
21519;SDS011;10921;53.614;9.882;2022-07-04T11:37:23;7.90;;;7.28;;
21519;SDS011;10921;53.614;9.882;2022-07-04T11:39:49;8.40;;;7.70;;
21519;SDS011;10921;53.614;9.882;2022-07-04T11:42:40;8.63;;;7.88;;
21519;SDS011;10921;53.614;9.882;2022-07-04T11:45:43;9.02;;;8.25;;
21519;SDS011;10921;53.614;9.882;2022-07-04T11:48:10;10.25;;;8.48;;
21519;SDS011;10921;53.614;9.882;2022-07-04T11:50:40;8.88;;;8.23;;
21519;SDS011;10921;53.614;9.882;2022-07-04T11:53:06;8.75;;;8.13;;
21519;SDS011;10921;53.614;9.882;2022-07-04T11:55:52;8.73;;;8.13;;
21519;SDS011;10921;53.614;9.882;2022-07-04T11:58:19;8.88;;;7.90;;
21519;SDS011;10921;53.614;9.882;2022-07-04T12:00:45;8.27;;;7.57;;
21519;SDS011;10921;53.614;9.882;2022-07-04T12:03:12;8.30;;;7.60;;
21519;SDS011;10921;53.614;9.882;2022-07-04T12:05:38;8.38;;;7.68;;
21519;SDS011;10921;53.614;9.882;2022-07-04T12:08:05;8.27;;;7.53;;
21519;SDS011;10921;53.614;9.882;2022-07-04T12:10:51;8.18;;;7.40;;
21519;SDS011;10921;53.614;9.882;2022-07-04T12:13:18;8.25;;;7.63;;
21519;SDS011;10921;53.614;9.882;2022-07-04T12:15:46;8.20;;;7.50;;
21519;SDS011;10921;53.614;9.882;2022-07-04T12:18:19;8.30;;;7.50;;
21519;SDS011;10921;53.614;9.882;2022-07-04T12:20:55;8.63;;;7.82;;
21519;SDS011;10921;53.614;9.882;2022-07-04T12:23:38;8.13;;;7.45;;
21519;SDS011;10921;53.614;9.882;2022-07-04T12:26:26;8.07;;;7.38;;
21519;SDS011;10921;53.614;9.882;2022-07-04T12:28:54;8.10;;;7.40;;
21519;SDS011;10921;53.614;9.882;2022-07-04T12:31:20;8.30;;;7.70;;
21519;SDS011;10921;53.614;9.882;2022-07-04T12:34:04;8.60;;;7.90;;
21519;SDS011;10921;53.614;9.882;2022-07-04T12:36:30;8.60;;;7.88;;
21519;SDS011;10921;53.614;9.882;2022-07-04T12:38:56;8.93;;;8.07;;
21519;SDS011;10921;53.614;9.882;2022-07-04T12:41:30;9.43;;;8.00;;
21519;SDS011;10921;53.614;9.882;2022-07-04T12:43:57;8.55;;;7.75;;
21519;SDS011;10921;53.614;9.882;2022-07-04T12:48:51;8.27;;;7.57;;
21519;SDS011;10921;53.614;9.882;2022-07-04T12:51:26;9.20;;;8.30;;
21519;SDS011;10921;53.614;9.882;2022-07-04T12:53:55;8.90;;;8.00;;
21519;SDS011;10921;53.614;9.882;2022-07-04T12:58:58;10.05;;;8.02;;
21519;SDS011;10921;53.614;9.882;2022-07-04T13:01:26;8.77;;;7.88;;
21519;SDS011;10921;53.614;9.882;2022-07-04T13:03:53;8.65;;;7.80;;
21519;SDS011;10921;53.614;9.882;2022-07-04T13:06:20;8.85;;;7.88;;
21519;SDS011;10921;53.614;9.882;2022-07-04T13:08:46;8.63;;;8.00;;
21519;SDS011;10921;53.614;9.882;2022-07-04T13:11:13;9.40;;;8.45;;
21519;SDS011;10921;53.614;9.882;2022-07-04T13:13:58;9.02;;;8.30;;
21519;SDS011;10921;53.614;9.882;2022-07-04T13:16:25;8.90;;;8.20;;
21519;SDS011;10921;53.614;9.882;2022-07-04T13:18:51;9.65;;;8.70;;
21519;SDS011;10921;53.614;9.882;2022-07-04T13:21:19;9.50;;;8.60;;
21519;SDS011;10921;53.614;9.882;2022-07-04T13:23:45;9.10;;;8.30;;
21519;SDS011;10921;53.614;9.882;2022-07-04T13:26:12;9.00;;;8.40;;
21519;SDS011;10921;53.614;9.882;2022-07-04T13:28:38;8.82;;;8.23;;
21519;SDS011;10921;53.614;9.882;2022-07-04T13:31:05;8.38;;;7.72;;
21519;SDS011;10921;53.614;9.882;2022-07-04T13:33:32;5.03;;;3.63;;
21519;SDS011;10921;53.614;9.882;2022-07-04T13:35:58;2.83;;;2.15;;
21519;SDS011;10921;53.614;9.882;2022-07-04T13:38:25;4.85;;;2.47;;
21519;SDS011;10921;53.614;9.882;2022-07-04T13:40:52;3.53;;;2.22;;
21519;SDS011;10921;53.614;9.882;2022-07-04T13:43:18;3.90;;;2.25;;
21519;SDS011;10921;53.614;9.882;2022-07-04T13:45:45;11.60;;;3.05;;
21519;SDS011;10921;53.614;9.882;2022-07-04T13:48:15;6.43;;;2.90;;
21519;SDS011;10921;53.614;9.882;2022-07-04T13:50:42;7.75;;;2.60;;
21519;SDS011;10921;53.614;9.882;2022-07-04T13:53:08;3.10;;;2.45;;
21519;SDS011;10921;53.614;9.882;2022-07-04T13:55:35;5.55;;;2.85;;
21519;SDS011;10921;53.614;9.882;2022-07-04T13:58:05;5.25;;;2.70;;
21519;SDS011;10921;53.614;9.882;2022-07-04T14:00:33;6.03;;;2.63;;
21519;SDS011;10921;53.614;9.882;2022-07-04T14:03:01;8.45;;;2.42;;
21519;SDS011;10921;53.614;9.882;2022-07-04T14:05:28;5.75;;;2.70;;
21519;SDS011;10921;53.614;9.882;2022-07-04T14:07:54;6.25;;;2.70;;
21519;SDS011;10921;53.614;9.882;2022-07-04T14:10:21;8.20;;;7.50;;
21519;SDS011;10921;53.614;9.882;2022-07-04T14:12:47;9.73;;;8.00;;
21519;SDS011;10921;53.614;9.882;2022-07-04T14:15:14;8.32;;;7.60;;
21519;SDS011;10921;53.614;9.882;2022-07-04T14:17:41;8.48;;;7.70;;
21519;SDS011;10921;53.614;9.882;2022-07-04T14:20:08;8.65;;;7.80;;
21519;SDS011;10921;53.614;9.882;2022-07-04T14:22:39;8.82;;;7.43;;
21519;SDS011;10921;53.614;9.882;2022-07-04T14:25:06;8.35;;;7.50;;
21519;SDS011;10921;53.614;9.882;2022-07-04T14:27:34;8.07;;;7.20;;
21519;SDS011;10921;53.614;9.882;2022-07-04T14:30:00;10.05;;;7.00;;
21519;SDS011;10921;53.614;9.882;2022-07-04T14:32:27;9.40;;;7.10;;
21519;SDS011;10921;53.614;9.882;2022-07-04T14:34:54;8.05;;;7.00;;
21519;SDS011;10921;53.614;9.882;2022-07-04T14:37:20;8.35;;;7.07;;
21519;SDS011;10921;53.614;9.882;2022-07-04T14:39:47;8.13;;;7.30;;
21519;SDS011;10921;53.614;9.882;2022-07-04T14:42:13;7.97;;;7.15;;
21519;SDS011;10921;53.614;9.882;2022-07-04T14:44:40;8.52;;;7.63;;
21519;SDS011;10921;53.614;9.882;2022-07-04T14:47:06;12.63;;;8.00;;
21519;SDS011;10921;53.614;9.882;2022-07-04T14:49:37;8.77;;;7.88;;
21519;SDS011;10921;53.614;9.882;2022-07-04T14:52:03;8.88;;;8.00;;
21519;SDS011;10921;53.614;9.882;2022-07-04T14:54:30;10.45;;;6.90;;
21519;SDS011;10921;53.614;9.882;2022-07-04T14:56:57;10.15;;;7.43;;
21519;SDS011;10921;53.614;9.882;2022-07-04T14:59:24;9.63;;;7.78;;
21519;SDS011;10921;53.614;9.882;2022-07-04T15:01:51;7.85;;;6.95;;
21519;SDS011;10921;53.614;9.882;2022-07-04T15:04:19;8.13;;;7.30;;
21519;SDS011;10921;53.614;9.882;2022-07-04T15:06:45;8.40;;;7.28;;
21519;SDS011;10921;53.614;9.882;2022-07-04T15:09:13;7.70;;;6.95;;
21519;SDS011;10921;53.614;9.882;2022-07-04T15:11:40;7.70;;;6.90;;
21519;SDS011;10921;53.614;9.882;2022-07-04T15:14:07;9.73;;;7.28;;
21519;SDS011;10921;53.614;9.882;2022-07-04T15:16:33;17.17;;;7.70;;
21519;SDS011;10921;53.614;9.882;2022-07-04T15:19:00;8.05;;;7.25;;
21519;SDS011;10921;53.614;9.882;2022-07-04T15:21:26;7.93;;;6.80;;